Roswell, New Mexico
Current Conditions -  °F | °C
As of 12:51 PM on Monday 26 Jan 2015 (Local Time) from KROW Reporting Station
Clear Clear  
Wind Chill: 56°   Ceiling: Unl
Heat Index: 56°   Visibility: 10mi
Dew Point: 34°   Wind: 3mph
Humidity: 44%   Direction: NA
Pressure: 30.26"   Gusts: NA
Location:  33.39°N, 104.52°W
Report Text: KROW 261951Z VRB03KT 10SM CLR 13/01 A3026 RMK AO2 SLP233 T01330011
Loading
Personal Weather Stations






























Interactive Weather Map New forecast layout! Learn more

10-Day Weather Forecast

Advertisements
Track Severe Weather on mobile